sensor_id;sensor_type;location;lat;lon;timestamp;P1;durP1;ratioP1;P2;durP2;ratioP2
6414;SDS011;3240;48.790;9.210;2022-09-09T00:01:24;4.97;;;1.97;;
6414;SDS011;3240;48.790;9.210;2022-09-09T00:03:53;5.60;;;1.60;;
6414;SDS011;3240;48.790;9.210;2022-09-09T00:06:21;3.43;;;1.10;;
6414;SDS011;3240;48.790;9.210;2022-09-09T00:08:51;3.50;;;1.40;;
6414;SDS011;3240;48.790;9.210;2022-09-09T00:11:17;4.10;;;1.20;;
6414;SDS011;3240;48.790;9.210;2022-09-09T00:13:46;7.00;;;1.20;;
6414;SDS011;3240;48.790;9.210;2022-09-09T00:16:16;4.60;;;1.33;;
6414;SDS011;3240;48.790;9.210;2022-09-09T00:21:17;2.37;;;1.50;;
6414;SDS011;3240;48.790;9.210;2022-09-09T00:23:47;2.57;;;1.30;;
6414;SDS011;3240;48.790;9.210;2022-09-09T00:28:49;3.87;;;1.67;;
6414;SDS011;3240;48.790;9.210;2022-09-09T00:31:16;4.27;;;1.50;;
6414;SDS011;3240;48.790;9.210;2022-09-09T00:33:43;2.47;;;1.50;;
6414;SDS011;3240;48.790;9.210;2022-09-09T00:36:13;6.33;;;1.47;;
6414;SDS011;3240;48.790;9.210;2022-09-09T00:38:42;4.23;;;1.20;;
6414;SDS011;3240;48.790;9.210;2022-09-09T00:41:13;5.07;;;1.40;;
6414;SDS011;3240;48.790;9.210;2022-09-09T00:43:40;3.80;;;1.33;;
6414;SDS011;3240;48.790;9.210;2022-09-09T00:46:14;2.53;;;1.20;;
6414;SDS011;3240;48.790;9.210;2022-09-09T00:48:43;2.77;;;1.40;;
6414;SDS011;3240;48.790;9.210;2022-09-09T00:51:09;4.63;;;1.50;;
6414;SDS011;3240;48.790;9.210;2022-09-09T00:53:41;3.67;;;1.70;;
6414;SDS011;3240;48.790;9.210;2022-09-09T00:56:09;5.53;;;1.80;;
6414;SDS011;3240;48.790;9.210;2022-09-09T00:58:34;2.47;;;1.13;;
6414;SDS011;3240;48.790;9.210;2022-09-09T01:01:04;4.00;;;1.30;;
6414;SDS011;3240;48.790;9.210;2022-09-09T01:03:39;4.47;;;1.20;;
6414;SDS011;3240;48.790;9.210;2022-09-09T01:09:32;3.73;;;1.20;;
6414;SDS011;3240;48.790;9.210;2022-09-09T01:14:22;5.63;;;1.27;;
6414;SDS011;3240;48.790;9.210;2022-09-09T01:16:47;3.37;;;1.30;;
6414;SDS011;3240;48.790;9.210;2022-09-09T01:19:18;4.20;;;1.57;;
6414;SDS011;3240;48.790;9.210;2022-09-09T01:21:48;2.60;;;1.20;;
6414;SDS011;3240;48.790;9.210;2022-09-09T01:24:22;2.77;;;1.80;;
6414;SDS011;3240;48.790;9.210;2022-09-09T01:26:48;3.13;;;1.70;;
6414;SDS011;3240;48.790;9.210;2022-09-09T01:29:15;2.80;;;1.37;;
6414;SDS011;3240;48.790;9.210;2022-09-09T01:31:59;4.37;;;1.50;;
6414;SDS011;3240;48.790;9.210;2022-09-09T01:34:28;5.33;;;1.67;;
6414;SDS011;3240;48.790;9.210;2022-09-09T01:37:00;4.17;;;1.43;;
6414;SDS011;3240;48.790;9.210;2022-09-09T01:39:26;3.73;;;1.90;;
6414;SDS011;3240;48.790;9.210;2022-09-09T01:41:54;5.63;;;1.40;;
6414;SDS011;3240;48.790;9.210;2022-09-09T01:44:23;4.83;;;1.53;;
6414;SDS011;3240;48.790;9.210;2022-09-09T01:46:50;4.23;;;1.90;;
6414;SDS011;3240;48.790;9.210;2022-09-09T01:49:19;4.50;;;2.20;;
6414;SDS011;3240;48.790;9.210;2022-09-09T01:51:49;4.23;;;2.40;;
6414;SDS011;3240;48.790;9.210;2022-09-09T01:54:15;4.23;;;1.87;;
6414;SDS011;3240;48.790;9.210;2022-09-09T01:56:47;3.30;;;1.40;;
6414;SDS011;3240;48.790;9.210;2022-09-09T01:59:18;4.27;;;1.60;;
6414;SDS011;3240;48.790;9.210;2022-09-09T02:01:49;4.23;;;1.50;;
6414;SDS011;3240;48.790;9.210;2022-09-09T02:04:21;3.17;;;1.20;;
6414;SDS011;3240;48.790;9.210;2022-09-09T02:06:45;2.10;;;1.43;;
6414;SDS011;3240;48.790;9.210;2022-09-09T02:09:13;3.47;;;1.63;;
6414;SDS011;3240;48.790;9.210;2022-09-09T02:11:41;7.87;;;1.50;;
6414;SDS011;3240;48.790;9.210;2022-09-09T02:14:12;3.57;;;1.73;;
6414;SDS011;3240;48.790;9.210;2022-09-09T02:16:39;9.60;;;2.20;;
6414;SDS011;3240;48.790;9.210;2022-09-09T02:19:11;12.00;;;2.70;;
6414;SDS011;3240;48.790;9.210;2022-09-09T02:21:37;9.03;;;3.10;;
6414;SDS011;3240;48.790;9.210;2022-09-09T02:24:06;8.00;;;2.50;;
6414;SDS011;3240;48.790;9.210;2022-09-09T02:26:33;4.90;;;2.60;;
6414;SDS011;3240;48.790;9.210;2022-09-09T02:29:02;3.37;;;1.80;;
6414;SDS011;3240;48.790;9.210;2022-09-09T02:31:29;3.27;;;2.00;;
6414;SDS011;3240;48.790;9.210;2022-09-09T02:33:59;3.33;;;1.23;;
6414;SDS011;3240;48.790;9.210;2022-09-09T02:36:26;2.80;;;1.00;;
6414;SDS011;3240;48.790;9.210;2022-09-09T02:38:53;3.33;;;0.83;;
6414;SDS011;3240;48.790;9.210;2022-09-09T02:41:24;3.17;;;0.90;;
6414;SDS011;3240;48.790;9.210;2022-09-09T02:43:51;3.03;;;1.13;;
6414;SDS011;3240;48.790;9.210;2022-09-09T02:46:32;6.93;;;0.80;;
6414;SDS011;3240;48.790;9.210;2022-09-09T02:48:59;2.40;;;0.90;;
6414;SDS011;3240;48.790;9.210;2022-09-09T02:51:33;3.70;;;0.87;;
6414;SDS011;3240;48.790;9.210;2022-09-09T02:54:01;2.87;;;1.00;;
6414;SDS011;3240;48.790;9.210;2022-09-09T02:56:27;2.20;;;1.20;;
6414;SDS011;3240;48.790;9.210;2022-09-09T02:58:55;3.33;;;1.30;;
6414;SDS011;3240;48.790;9.210;2022-09-09T03:01:23;4.00;;;0.97;;
6414;SDS011;3240;48.790;9.210;2022-09-09T03:03:51;5.63;;;1.33;;
6414;SDS011;3240;48.790;9.210;2022-09-09T03:06:19;2.43;;;1.00;;
6414;SDS011;3240;48.790;9.210;2022-09-09T03:08:47;1.53;;;0.83;;
6414;SDS011;3240;48.790;9.210;2022-09-09T03:11:15;4.93;;;1.03;;
6414;SDS011;3240;48.790;9.210;2022-09-09T03:13:43;5.57;;;1.07;;
6414;SDS011;3240;48.790;9.210;2022-09-09T03:16:11;2.60;;;0.80;;
6414;SDS011;3240;48.790;9.210;2022-09-09T03:18:39;3.33;;;1.40;;
6414;SDS011;3240;48.790;9.210;2022-09-09T03:21:07;2.30;;;0.83;;
6414;SDS011;3240;48.790;9.210;2022-09-09T03:23:35;3.17;;;1.27;;
6414;SDS011;3240;48.790;9.210;2022-09-09T03:26:03;8.57;;;1.73;;
6414;SDS011;3240;48.790;9.210;2022-09-09T03:28:31;3.80;;;1.90;;
6414;SDS011;3240;48.790;9.210;2022-09-09T03:31:00;5.43;;;2.97;;
6414;SDS011;3240;48.790;9.210;2022-09-09T03:33:27;6.07;;;2.00;;
6414;SDS011;3240;48.790;9.210;2022-09-09T03:35:55;6.73;;;2.20;;
6414;SDS011;3240;48.790;9.210;2022-09-09T03:38:24;5.80;;;2.27;;
6414;SDS011;3240;48.790;9.210;2022-09-09T03:40:52;12.90;;;2.50;;
6414;SDS011;3240;48.790;9.210;2022-09-09T03:43:19;6.40;;;1.70;;
6414;SDS011;3240;48.790;9.210;2022-09-09T03:45:47;4.50;;;2.10;;
6414;SDS011;3240;48.790;9.210;2022-09-09T03:48:16;4.67;;;2.20;;
6414;SDS011;3240;48.790;9.210;2022-09-09T03:50:46;6.80;;;2.17;;
6414;SDS011;3240;48.790;9.210;2022-09-09T03:53:13;6.93;;;1.80;;
6414;SDS011;3240;48.790;9.210;2022-09-09T03:55:45;4.33;;;2.13;;
6414;SDS011;3240;48.790;9.210;2022-09-09T03:58:13;9.97;;;2.00;;
6414;SDS011;3240;48.790;9.210;2022-09-09T04:00:40;4.67;;;1.90;;
6414;SDS011;3240;48.790;9.210;2022-09-09T04:03:09;5.37;;;2.03;;
6414;SDS011;3240;48.790;9.210;2022-09-09T04:05:36;5.80;;;1.70;;
6414;SDS011;3240;48.790;9.210;2022-09-09T04:08:05;3.87;;;1.77;;
6414;SDS011;3240;48.790;9.210;2022-09-09T04:10:33;6.67;;;1.73;;
6414;SDS011;3240;48.790;9.210;2022-09-09T04:13:01;5.00;;;2.10;;
6414;SDS011;3240;48.790;9.210;2022-09-09T04:15:29;5.17;;;1.60;;
6414;SDS011;3240;48.790;9.210;2022-09-09T04:17:57;6.17;;;2.03;;
6414;SDS011;3240;48.790;9.210;2022-09-09T04:20:25;6.20;;;2.47;;
6414;SDS011;3240;48.790;9.210;2022-09-09T04:22:53;3.10;;;1.30;;
6414;SDS011;3240;48.790;9.210;2022-09-09T04:25:21;2.97;;;1.90;;
6414;SDS011;3240;48.790;9.210;2022-09-09T04:27:53;12.73;;;2.23;;
6414;SDS011;3240;48.790;9.210;2022-09-09T04:30:20;5.37;;;2.17;;
6414;SDS011;3240;48.790;9.210;2022-09-09T04:32:48;4.97;;;1.83;;
6414;SDS011;3240;48.790;9.210;2022-09-09T04:35:16;5.30;;;2.23;;
6414;SDS011;3240;48.790;9.210;2022-09-09T04:37:44;4.70;;;1.83;;
6414;SDS011;3240;48.790;9.210;2022-09-09T04:40:12;7.30;;;2.30;;
6414;SDS011;3240;48.790;9.210;2022-09-09T04:42:40;6.27;;;2.43;;
6414;SDS011;3240;48.790;9.210;2022-09-09T04:45:08;4.60;;;2.33;;
6414;SDS011;3240;48.790;9.210;2022-09-09T04:47:36;5.00;;;2.40;;
6414;SDS011;3240;48.790;9.210;2022-09-09T04:50:05;5.77;;;2.40;;
6414;SDS011;3240;48.790;9.210;2022-09-09T04:52:34;5.73;;;2.30;;
6414;SDS011;3240;48.790;9.210;2022-09-09T04:55:02;6.13;;;2.03;;
6414;SDS011;3240;48.790;9.210;2022-09-09T04:57:30;5.03;;;1.90;;
6414;SDS011;3240;48.790;9.210;2022-09-09T04:59:58;9.23;;;2.10;;
6414;SDS011;3240;48.790;9.210;2022-09-09T05:02:26;3.20;;;1.73;;
6414;SDS011;3240;48.790;9.210;2022-09-09T05:04:54;8.30;;;2.23;;
6414;SDS011;3240;48.790;9.210;2022-09-09T05:07:22;5.77;;;1.90;;
6414;SDS011;3240;48.790;9.210;2022-09-09T05:09:50;4.07;;;2.20;;
6414;SDS011;3240;48.790;9.210;2022-09-09T05:12:18;6.33;;;2.20;;
6414;SDS011;3240;48.790;9.210;2022-09-09T05:14:46;9.98;;;2.00;;
6414;SDS011;3240;48.790;9.210;2022-09-09T05:17:14;3.47;;;2.10;;
6414;SDS011;3240;48.790;9.210;2022-09-09T05:19:42;3.03;;;2.00;;
6414;SDS011;3240;48.790;9.210;2022-09-09T05:22:10;7.90;;;2.20;;
6414;SDS011;3240;48.790;9.210;2022-09-09T05:24:38;7.17;;;2.20;;
6414;SDS011;3240;48.790;9.210;2022-09-09T05:27:06;6.93;;;2.20;;
6414;SDS011;3240;48.790;9.210;2022-09-09T05:29:34;5.17;;;2.13;;
6414;SDS011;3240;48.790;9.210;2022-09-09T05:32:02;4.03;;;2.13;;
6414;SDS011;3240;48.790;9.210;2022-09-09T05:34:30;5.53;;;1.87;;
6414;SDS011;3240;48.790;9.210;2022-09-09T05:36:58;6.10;;;2.13;;
6414;SDS011;3240;48.790;9.210;2022-09-09T05:39:26;6.13;;;1.73;;
6414;SDS011;3240;48.790;9.210;2022-09-09T05:41:54;5.60;;;2.10;;
6414;SDS011;3240;48.790;9.210;2022-09-09T05:44:22;3.53;;;1.80;;
6414;SDS011;3240;48.790;9.210;2022-09-09T05:46:50;11.70;;;2.57;;
6414;SDS011;3240;48.790;9.210;2022-09-09T05:49:18;4.30;;;2.03;;
6414;SDS011;3240;48.790;9.210;2022-09-09T05:51:46;4.67;;;1.50;;
6414;SDS011;3240;48.790;9.210;2022-09-09T05:54:14;7.70;;;2.07;;
6414;SDS011;3240;48.790;9.210;2022-09-09T05:56:42;8.10;;;2.00;;
6414;SDS011;3240;48.790;9.210;2022-09-09T05:59:10;5.70;;;3.00;;
6414;SDS011;3240;48.790;9.210;2022-09-09T06:01:38;10.20;;;2.50;;
6414;SDS011;3240;48.790;9.210;2022-09-09T06:04:07;7.33;;;2.30;;
6414;SDS011;3240;48.790;9.210;2022-09-09T06:06:35;7.03;;;3.07;;
6414;SDS011;3240;48.790;9.210;2022-09-09T06:09:04;6.60;;;2.20;;
6414;SDS011;3240;48.790;9.210;2022-09-09T06:11:32;6.03;;;2.00;;
6414;SDS011;3240;48.790;9.210;2022-09-09T06:14:00;7.30;;;2.33;;
6414;SDS011;3240;48.790;9.210;2022-09-09T06:16:28;11.63;;;2.50;;
6414;SDS011;3240;48.790;9.210;2022-09-09T06:18:56;11.33;;;1.90;;
6414;SDS011;3240;48.790;9.210;2022-09-09T06:21:25;3.87;;;1.93;;
6414;SDS011;3240;48.790;9.210;2022-09-09T06:23:53;7.47;;;2.40;;
6414;SDS011;3240;48.790;9.210;2022-09-09T06:26:22;6.77;;;1.57;;
6414;SDS011;3240;48.790;9.210;2022-09-09T06:28:49;2.40;;;1.07;;
6414;SDS011;3240;48.790;9.210;2022-09-09T06:31:17;4.33;;;1.83;;
6414;SDS011;3240;48.790;9.210;2022-09-09T06:33:45;5.03;;;1.97;;
6414;SDS011;3240;48.790;9.210;2022-09-09T06:36:14;6.53;;;1.57;;
6414;SDS011;3240;48.790;9.210;2022-09-09T06:38:41;2.00;;;1.23;;
6414;SDS011;3240;48.790;9.210;2022-09-09T06:41:10;2.17;;;1.43;;
6414;SDS011;3240;48.790;9.210;2022-09-09T06:43:37;6.20;;;1.50;;
6414;SDS011;3240;48.790;9.210;2022-09-09T06:46:09;5.73;;;1.60;;
6414;SDS011;3240;48.790;9.210;2022-09-09T06:48:35;2.83;;;1.43;;
6414;SDS011;3240;48.790;9.210;2022-09-09T06:51:04;3.30;;;1.30;;
6414;SDS011;3240;48.790;9.210;2022-09-09T06:53:32;3.00;;;1.17;;
6414;SDS011;3240;48.790;9.210;2022-09-09T06:56:00;10.83;;;2.03;;
6414;SDS011;3240;48.790;9.210;2022-09-09T06:58:27;11.25;;;2.28;;
6414;SDS011;3240;48.790;9.210;2022-09-09T07:01:03;5.10;;;1.70;;
6414;SDS011;3240;48.790;9.210;2022-09-09T07:03:31;4.20;;;1.80;;
6414;SDS011;3240;48.790;9.210;2022-09-09T07:05:59;7.20;;;1.90;;
6414;SDS011;3240;48.790;9.210;2022-09-09T07:08:27;4.97;;;1.87;;
6414;SDS011;3240;48.790;9.210;2022-09-09T07:11:01;8.40;;;2.27;;
6414;SDS011;3240;48.790;9.210;2022-09-09T07:13:24;4.90;;;2.40;;
6414;SDS011;3240;48.790;9.210;2022-09-09T07:15:52;7.60;;;2.60;;
6414;SDS011;3240;48.790;9.210;2022-09-09T07:18:20;4.77;;;2.50;;
6414;SDS011;3240;48.790;9.210;2022-09-09T07:20:52;4.60;;;2.13;;
6414;SDS011;3240;48.790;9.210;2022-09-09T07:23:20;3.60;;;2.23;;
6414;SDS011;3240;48.790;9.210;2022-09-09T07:25:48;5.70;;;2.30;;
6414;SDS011;3240;48.790;9.210;2022-09-09T07:28:16;8.23;;;3.00;;
6414;SDS011;3240;48.790;9.210;2022-09-09T07:30:52;7.33;;;2.40;;
6414;SDS011;3240;48.790;9.210;2022-09-09T07:33:12;6.50;;;2.20;;
6414;SDS011;3240;48.790;9.210;2022-09-09T07:35:40;5.27;;;2.50;;
6414;SDS011;3240;48.790;9.210;2022-09-09T07:38:08;9.10;;;2.00;;
6414;SDS011;3240;48.790;9.210;2022-09-09T07:40:36;6.67;;;2.03;;
6414;SDS011;3240;48.790;9.210;2022-09-09T07:43:04;4.53;;;1.70;;
6414;SDS011;3240;48.790;9.210;2022-09-09T07:45:33;7.93;;;1.87;;
6414;SDS011;3240;48.790;9.210;2022-09-09T07:48:00;8.60;;;2.43;;
6414;SDS011;3240;48.790;9.210;2022-09-09T07:50:28;5.27;;;2.13;;
6414;SDS011;3240;48.790;9.210;2022-09-09T07:52:56;7.37;;;1.83;;
6414;SDS011;3240;48.790;9.210;2022-09-09T07:55:24;8.40;;;2.10;;
6414;SDS011;3240;48.790;9.210;2022-09-09T07:57:53;3.77;;;1.90;;
6414;SDS011;3240;48.790;9.210;2022-09-09T08:00:20;4.20;;;2.10;;
6414;SDS011;3240;48.790;9.210;2022-09-09T08:02:48;3.97;;;1.60;;
6414;SDS011;3240;48.790;9.210;2022-09-09T08:05:16;4.47;;;1.50;;
6414;SDS011;3240;48.790;9.210;2022-09-09T08:07:44;4.40;;;1.90;;
6414;SDS011;3240;48.790;9.210;2022-09-09T08:10:12;2.80;;;1.40;;
6414;SDS011;3240;48.790;9.210;2022-09-09T08:12:40;3.00;;;1.57;;
6414;SDS011;3240;48.790;9.210;2022-09-09T08:15:09;4.57;;;1.20;;
6414;SDS011;3240;48.790;9.210;2022-09-09T08:17:37;2.90;;;1.13;;
6414;SDS011;3240;48.790;9.210;2022-09-09T08:20:05;5.23;;;1.60;;
6414;SDS011;3240;48.790;9.210;2022-09-09T08:22:33;4.20;;;1.17;;
6414;SDS011;3240;48.790;9.210;2022-09-09T08:25:01;2.33;;;0.97;;
6414;SDS011;3240;48.790;9.210;2022-09-09T08:27:29;4.80;;;1.20;;
6414;SDS011;3240;48.790;9.210;2022-09-09T08:29:57;2.77;;;1.13;;
6414;SDS011;3240;48.790;9.210;2022-09-09T08:32:25;2.03;;;1.00;;
6414;SDS011;3240;48.790;9.210;2022-09-09T08:34:53;4.63;;;1.27;;
6414;SDS011;3240;48.790;9.210;2022-09-09T08:37:21;2.53;;;0.90;;
6414;SDS011;3240;48.790;9.210;2022-09-09T08:39:49;2.93;;;1.00;;
6414;SDS011;3240;48.790;9.210;2022-09-09T08:42:20;3.47;;;1.08;;
6414;SDS011;3240;48.790;9.210;2022-09-09T08:44:52;3.93;;;1.23;;
6414;SDS011;3240;48.790;9.210;2022-09-09T08:52:39;5.07;;;1.23;;
6414;SDS011;3240;48.790;9.210;2022-09-09T08:57:39;3.83;;;1.40;;
6414;SDS011;3240;48.790;9.210;2022-09-09T09:00:09;3.50;;;1.40;;
6414;SDS011;3240;48.790;9.210;2022-09-09T09:02:41;2.60;;;0.90;;
6414;SDS011;3240;48.790;9.210;2022-09-09T09:07:54;3.70;;;1.00;;
6414;SDS011;3240;48.790;9.210;2022-09-09T09:10:35;4.10;;;1.30;;
6414;SDS011;3240;48.790;9.210;2022-09-09T09:13:03;4.03;;;1.10;;
6414;SDS011;3240;48.790;9.210;2022-09-09T09:15:32;1.80;;;1.00;;
6414;SDS011;3240;48.790;9.210;2022-09-09T09:17:58;4.20;;;1.03;;
6414;SDS011;3240;48.790;9.210;2022-09-09T09:20:31;4.13;;;0.97;;
6414;SDS011;3240;48.790;9.210;2022-09-09T09:22:55;3.53;;;1.07;;
6414;SDS011;3240;48.790;9.210;2022-09-09T09:25:31;6.93;;;1.57;;
6414;SDS011;3240;48.790;9.210;2022-09-09T09:30:39;3.27;;;1.10;;
6414;SDS011;3240;48.790;9.210;2022-09-09T09:33:08;4.80;;;0.97;;
6414;SDS011;3240;48.790;9.210;2022-09-09T09:35:33;4.93;;;0.70;;
6414;SDS011;3240;48.790;9.210;2022-09-09T09:38:05;1.60;;;0.90;;
6414;SDS011;3240;48.790;9.210;2022-09-09T09:40:29;7.23;;;1.53;;
6414;SDS011;3240;48.790;9.210;2022-09-09T09:43:00;1.37;;;0.90;;
6414;SDS011;3240;48.790;9.210;2022-09-09T09:45:32;2.07;;;0.60;;
6414;SDS011;3240;48.790;9.210;2022-09-09T09:47:58;4.30;;;0.87;;
6414;SDS011;3240;48.790;9.210;2022-09-09T09:50:25;1.23;;;0.60;;
6414;SDS011;3240;48.790;9.210;2022-09-09T09:52:54;1.90;;;0.70;;
6414;SDS011;3240;48.790;9.210;2022-09-09T09:55:21;2.73;;;0.80;;
6414;SDS011;3240;48.790;9.210;2022-09-09T09:57:49;1.77;;;0.70;;
6414;SDS011;3240;48.790;9.210;2022-09-09T10:00:18;1.63;;;0.80;;
6414;SDS011;3240;48.790;9.210;2022-09-09T10:02:46;3.40;;;0.73;;
6414;SDS011;3240;48.790;9.210;2022-09-09T10:05:15;2.27;;;0.73;;
6414;SDS011;3240;48.790;9.210;2022-09-09T10:07:41;5.13;;;0.70;;
6414;SDS011;3240;48.790;9.210;2022-09-09T10:10:11;4.40;;;0.90;;
6414;SDS011;3240;48.790;9.210;2022-09-09T10:12:43;4.03;;;0.87;;
6414;SDS011;3240;48.790;9.210;2022-09-09T10:18:04;4.80;;;0.83;;
6414;SDS011;3240;48.790;9.210;2022-09-09T10:21:21;2.00;;;0.87;;
6414;SDS011;3240;48.790;9.210;2022-09-09T10:23:07;3.60;;;1.20;;
6414;SDS011;3240;48.790;9.210;2022-09-09T10:25:38;2.50;;;1.07;;
6414;SDS011;3240;48.790;9.210;2022-09-09T10:28:27;2.43;;;0.80;;
6414;SDS011;3240;48.790;9.210;2022-09-09T10:33:28;5.63;;;0.97;;
6414;SDS011;3240;48.790;9.210;2022-09-09T10:36:08;2.40;;;0.80;;
6414;SDS011;3240;48.790;9.210;2022-09-09T10:38:39;4.33;;;1.20;;
6414;SDS011;3240;48.790;9.210;2022-09-09T10:41:09;2.20;;;1.00;;
6414;SDS011;3240;48.790;9.210;2022-09-09T10:46:14;4.03;;;1.20;;
6414;SDS011;3240;48.790;9.210;2022-09-09T10:51:17;5.07;;;1.00;;
6414;SDS011;3240;48.790;9.210;2022-09-09T10:53:45;6.27;;;1.00;;
6414;SDS011;3240;48.790;9.210;2022-09-09T10:56:11;4.17;;;1.30;;
6414;SDS011;3240;48.790;9.210;2022-09-09T10:58:42;3.43;;;1.10;;
6414;SDS011;3240;48.790;9.210;2022-09-09T11:01:12;5.63;;;1.27;;
6414;SDS011;3240;48.790;9.210;2022-09-09T11:03:38;2.40;;;0.83;;
6414;SDS011;3240;48.790;9.210;2022-09-09T11:06:06;4.83;;;1.30;;
6414;SDS011;3240;48.790;9.210;2022-09-09T11:08:34;2.63;;;1.20;;
6414;SDS011;3240;48.790;9.210;2022-09-09T11:11:04;4.90;;;1.40;;
6414;SDS011;3240;48.790;9.210;2022-09-09T11:13:35;7.70;;;1.30;;
6414;SDS011;3240;48.790;9.210;2022-09-09T11:16:00;2.00;;;0.90;;
6414;SDS011;3240;48.790;9.210;2022-09-09T11:18:27;3.60;;;0.90;;
6414;SDS011;3240;48.790;9.210;2022-09-09T11:20:57;2.37;;;0.90;;
6414;SDS011;3240;48.790;9.210;2022-09-09T11:23:25;2.63;;;1.73;;
6414;SDS011;3240;48.790;9.210;2022-09-09T11:25:53;5.80;;;0.90;;
6414;SDS011;3240;48.790;9.210;2022-09-09T11:31:32;3.03;;;0.93;;
6414;SDS011;3240;48.790;9.210;2022-09-09T11:33:48;2.27;;;0.63;;
6414;SDS011;3240;48.790;9.210;2022-09-09T11:36:45;4.53;;;0.60;;
6414;SDS011;3240;48.790;9.210;2022-09-09T11:38:58;2.40;;;0.70;;
6414;SDS011;3240;48.790;9.210;2022-09-09T11:41:21;5.30;;;0.80;;
6414;SDS011;3240;48.790;9.210;2022-09-09T11:43:50;3.27;;;0.80;;
6414;SDS011;3240;48.790;9.210;2022-09-09T11:46:18;1.77;;;0.50;;
6414;SDS011;3240;48.790;9.210;2022-09-09T11:48:56;1.43;;;0.60;;
6414;SDS011;3240;48.790;9.210;2022-09-09T11:51:26;3.80;;;0.70;;
6414;SDS011;3240;48.790;9.210;2022-09-09T11:53:56;2.00;;;0.80;;
6414;SDS011;3240;48.790;9.210;2022-09-09T11:56:25;1.57;;;0.67;;
6414;SDS011;3240;48.790;9.210;2022-09-09T11:58:55;1.70;;;0.60;;
6414;SDS011;3240;48.790;9.210;2022-09-09T12:01:27;1.30;;;0.70;;
6414;SDS011;3240;48.790;9.210;2022-09-09T12:03:56;1.17;;;0.57;;
6414;SDS011;3240;48.790;9.210;2022-09-09T12:06:29;1.83;;;0.60;;
6414;SDS011;3240;48.790;9.210;2022-09-09T12:08:58;0.97;;;0.43;;
6414;SDS011;3240;48.790;9.210;2022-09-09T12:11:25;1.70;;;0.53;;
6414;SDS011;3240;48.790;9.210;2022-09-09T12:13:54;1.80;;;0.43;;
6414;SDS011;3240;48.790;9.210;2022-09-09T12:16:28;1.43;;;0.50;;
6414;SDS011;3240;48.790;9.210;2022-09-09T12:19:02;1.10;;;0.50;;
6414;SDS011;3240;48.790;9.210;2022-09-09T12:21:33;1.23;;;0.40;;
6414;SDS011;3240;48.790;9.210;2022-09-09T12:23:57;1.80;;;0.43;;
6414;SDS011;3240;48.790;9.210;2022-09-09T12:27:04;1.87;;;0.50;;
6414;SDS011;3240;48.790;9.210;2022-09-09T12:31:56;1.63;;;0.40;;
6414;SDS011;3240;48.790;9.210;2022-09-09T12:34:28;2.33;;;0.70;;
6414;SDS011;3240;48.790;9.210;2022-09-09T12:36:53;1.43;;;0.70;;
6414;SDS011;3240;48.790;9.210;2022-09-09T12:39:21;2.03;;;0.60;;
6414;SDS011;3240;48.790;9.210;2022-09-09T12:41:51;2.80;;;0.67;;
6414;SDS011;3240;48.790;9.210;2022-09-09T12:44:18;0.93;;;0.53;;
6414;SDS011;3240;48.790;9.210;2022-09-09T12:46:46;2.10;;;0.50;;
6414;SDS011;3240;48.790;9.210;2022-09-09T12:51:48;1.03;;;0.57;;
6414;SDS011;3240;48.790;9.210;2022-09-09T12:54:16;3.33;;;0.70;;
6414;SDS011;3240;48.790;9.210;2022-09-09T12:56:45;3.10;;;0.60;;
6414;SDS011;3240;48.790;9.210;2022-09-09T12:59:24;2.17;;;0.70;;
6414;SDS011;3240;48.790;9.210;2022-09-09T13:01:55;0.90;;;0.60;;
6414;SDS011;3240;48.790;9.210;2022-09-09T13:04:23;2.07;;;0.47;;
6414;SDS011;3240;48.790;9.210;2022-09-09T13:06:51;1.87;;;0.70;;
6414;SDS011;3240;48.790;9.210;2022-09-09T13:09:19;3.60;;;1.00;;
6414;SDS011;3240;48.790;9.210;2022-09-09T13:11:49;2.17;;;0.80;;
6414;SDS011;3240;48.790;9.210;2022-09-09T13:14:16;1.53;;;0.60;;
6414;SDS011;3240;48.790;9.210;2022-09-09T13:16:43;1.63;;;1.53;;
6414;SDS011;3240;48.790;9.210;2022-09-09T13:19:14;5.13;;;1.53;;
6414;SDS011;3240;48.790;9.210;2022-09-09T13:21:42;2.40;;;0.83;;
6414;SDS011;3240;48.790;9.210;2022-09-09T13:26:44;1.07;;;0.60;;
6414;SDS011;3240;48.790;9.210;2022-09-09T13:29:16;4.40;;;0.70;;
6414;SDS011;3240;48.790;9.210;2022-09-09T13:31:41;3.63;;;0.97;;
6414;SDS011;3240;48.790;9.210;2022-09-09T13:34:13;6.13;;;0.80;;
6414;SDS011;3240;48.790;9.210;2022-09-09T13:36:40;1.37;;;0.60;;
6414;SDS011;3240;48.790;9.210;2022-09-09T13:39:13;4.77;;;1.00;;
6414;SDS011;3240;48.790;9.210;2022-09-09T13:41:43;2.70;;;0.80;;
6414;SDS011;3240;48.790;9.210;2022-09-09T13:44:05;1.97;;;0.60;;
6414;SDS011;3240;48.790;9.210;2022-09-09T13:46:36;1.47;;;0.60;;
6414;SDS011;3240;48.790;9.210;2022-09-09T13:49:22;1.43;;;0.60;;
6414;SDS011;3240;48.790;9.210;2022-09-09T13:51:50;1.00;;;0.40;;
6414;SDS011;3240;48.790;9.210;2022-09-09T13:54:19;1.80;;;1.08;;
6414;SDS011;3240;48.790;9.210;2022-09-09T13:56:46;2.03;;;0.70;;
6414;SDS011;3240;48.790;9.210;2022-09-09T13:59:15;3.17;;;0.50;;
6414;SDS011;3240;48.790;9.210;2022-09-09T14:01:42;2.23;;;0.80;;
6414;SDS011;3240;48.790;9.210;2022-09-09T14:04:10;3.27;;;0.70;;
6414;SDS011;3240;48.790;9.210;2022-09-09T14:06:38;1.37;;;0.60;;
6414;SDS011;3240;48.790;9.210;2022-09-09T14:09:07;1.60;;;0.73;;
6414;SDS011;3240;48.790;9.210;2022-09-09T14:11:34;2.13;;;0.70;;
6414;SDS011;3240;48.790;9.210;2022-09-09T14:14:02;2.60;;;0.60;;
6414;SDS011;3240;48.790;9.210;2022-09-09T14:16:30;1.40;;;0.63;;
6414;SDS011;3240;48.790;9.210;2022-09-09T14:18:58;1.63;;;0.50;;
6414;SDS011;3240;48.790;9.210;2022-09-09T14:21:27;1.33;;;0.60;;
6414;SDS011;3240;48.790;9.210;2022-09-09T14:23:54;1.63;;;0.60;;
6414;SDS011;3240;48.790;9.210;2022-09-09T14:26:22;2.73;;;0.70;;
6414;SDS011;3240;48.790;9.210;2022-09-09T14:28:50;1.40;;;0.50;;
6414;SDS011;3240;48.790;9.210;2022-09-09T14:31:18;1.80;;;0.60;;
6414;SDS011;3240;48.790;9.210;2022-09-09T14:33:46;1.60;;;0.50;;
6414;SDS011;3240;48.790;9.210;2022-09-09T14:36:14;2.43;;;0.60;;
6414;SDS011;3240;48.790;9.210;2022-09-09T14:38:42;1.53;;;0.50;;
6414;SDS011;3240;48.790;9.210;2022-09-09T14:41:11;2.63;;;0.93;;
6414;SDS011;3240;48.790;9.210;2022-09-09T14:43:39;5.70;;;0.73;;
6414;SDS011;3240;48.790;9.210;2022-09-09T14:46:08;4.03;;;0.60;;
6414;SDS011;3240;48.790;9.210;2022-09-09T14:48:35;2.20;;;0.50;;
6414;SDS011;3240;48.790;9.210;2022-09-09T14:51:05;4.40;;;0.93;;
6414;SDS011;3240;48.790;9.210;2022-09-09T14:53:32;1.40;;;0.60;;
6414;SDS011;3240;48.790;9.210;2022-09-09T14:56:18;1.70;;;0.70;;
6414;SDS011;3240;48.790;9.210;2022-09-09T14:58:45;2.80;;;0.93;;
6414;SDS011;3240;48.790;9.210;2022-09-09T15:01:15;1.37;;;0.50;;
6414;SDS011;3240;48.790;9.210;2022-09-09T15:03:42;1.30;;;0.60;;
6414;SDS011;3240;48.790;9.210;2022-09-09T15:06:11;3.87;;;0.60;;
6414;SDS011;3240;48.790;9.210;2022-09-09T15:08:39;2.50;;;0.80;;
6414;SDS011;3240;48.790;9.210;2022-09-09T15:11:06;1.27;;;0.50;;
6414;SDS011;3240;48.790;9.210;2022-09-09T15:13:35;2.73;;;0.60;;
6414;SDS011;3240;48.790;9.210;2022-09-09T15:16:04;1.00;;;0.73;;
6414;SDS011;3240;48.790;9.210;2022-09-09T15:18:32;2.10;;;0.50;;
6414;SDS011;3240;48.790;9.210;2022-09-09T15:21:00;1.20;;;0.77;;
6414;SDS011;3240;48.790;9.210;2022-09-09T15:23:28;2.37;;;0.50;;
6414;SDS011;3240;48.790;9.210;2022-09-09T15:25:56;2.40;;;0.77;;
6414;SDS011;3240;48.790;9.210;2022-09-09T15:28:24;0.77;;;0.50;;
6414;SDS011;3240;48.790;9.210;2022-09-09T15:30:52;1.13;;;0.60;;
6414;SDS011;3240;48.790;9.210;2022-09-09T15:33:20;2.57;;;0.80;;
6414;SDS011;3240;48.790;9.210;2022-09-09T15:35:48;1.60;;;0.50;;
6414;SDS011;3240;48.790;9.210;2022-09-09T15:38:16;1.80;;;0.60;;
6414;SDS011;3240;48.790;9.210;2022-09-09T15:40:44;1.73;;;0.50;;
6414;SDS011;3240;48.790;9.210;2022-09-09T15:43:12;2.20;;;0.70;;
6414;SDS011;3240;48.790;9.210;2022-09-09T15:45:40;3.10;;;0.60;;
6414;SDS011;3240;48.790;9.210;2022-09-09T15:48:08;3.63;;;1.00;;
6414;SDS011;3240;48.790;9.210;2022-09-09T15:50:36;1.57;;;0.70;;
6414;SDS011;3240;48.790;9.210;2022-09-09T15:53:04;2.43;;;0.70;;
6414;SDS011;3240;48.790;9.210;2022-09-09T15:55:32;3.60;;;0.90;;
6414;SDS011;3240;48.790;9.210;2022-09-09T15:58:00;2.40;;;0.93;;
6414;SDS011;3240;48.790;9.210;2022-09-09T16:00:28;3.47;;;1.03;;
6414;SDS011;3240;48.790;9.210;2022-09-09T16:02:56;1.93;;;0.67;;
6414;SDS011;3240;48.790;9.210;2022-09-09T16:05:24;0.97;;;0.63;;
6414;SDS011;3240;48.790;9.210;2022-09-09T16:07:52;5.80;;;0.83;;
6414;SDS011;3240;48.790;9.210;2022-09-09T16:10:20;3.03;;;0.70;;